createdAt,value
2019-05-29T00:02:01.478Z,0
2019-05-29T00:02:41.708Z,0
2019-05-29T00:03:22.114Z,0
2019-05-29T00:04:02.580Z,0
2019-05-29T00:04:42.919Z,0
2019-05-29T00:05:23.337Z,0
2019-05-29T00:06:03.752Z,0
2019-05-29T00:06:44.163Z,0
2019-05-29T00:07:24.743Z,0
2019-05-29T00:08:06.294Z,0
2019-05-29T00:08:45.539Z,0
2019-05-29T00:09:26.009Z,0
2019-05-29T00:10:06.291Z,0
2019-05-29T00:18:12.389Z,0
2019-05-29T00:18:51.645Z,0
2019-05-29T00:19:32.051Z,0
2019-05-29T00:20:12.473Z,0
2019-05-29T00:20:52.902Z,0
2019-05-29T00:21:33.318Z,0
2019-05-29T00:22:14.471Z,0
2019-05-29T00:22:54.122Z,0
2019-05-29T00:23:34.522Z,0
2019-05-29T00:24:14.933Z,0
2019-05-29T00:24:55.339Z,0
2019-05-29T00:25:35.756Z,0
2019-05-29T00:26:16.604Z,0
2019-05-29T00:34:21.225Z,0
2019-05-29T00:35:01.628Z,0
2019-05-29T00:35:42.060Z,0
2019-05-29T00:36:22.512Z,0
2019-05-29T00:37:02.868Z,0
2019-05-29T00:37:43.266Z,0
2019-05-29T00:38:23.625Z,0
2019-05-29T00:39:04.038Z,0
2019-05-29T00:39:44.417Z,0
2019-05-29T00:40:24.822Z,0
2019-05-29T00:41:05.217Z,0
2019-05-29T00:41:45.564Z,0
2019-05-29T00:42:26.002Z,0
2019-05-29T00:51:11.257Z,0
2019-05-29T00:51:51.671Z,0
2019-05-29T00:52:32.059Z,0
2019-05-29T00:53:12.480Z,0
2019-05-29T00:53:52.908Z,0
2019-05-29T00:54:33.328Z,0
2019-05-29T00:55:14.673Z,0
2019-05-29T00:55:54.182Z,0
2019-05-29T00:56:34.539Z,0
2019-05-29T00:57:15.304Z,0
2019-05-29T00:57:55.266Z,0
2019-05-29T00:58:35.672Z,0
2019-05-29T00:59:17.287Z,0
2019-05-29T01:07:21.056Z,0
2019-05-29T01:08:01.476Z,0
2019-05-29T01:08:41.978Z,0
2019-05-29T01:09:22.311Z,0
2019-05-29T01:10:02.731Z,0
2019-05-29T01:10:43.137Z,0
2019-05-29T01:11:23.552Z,0
2019-05-29T01:16:29.013Z,0
2019-05-29T01:17:17.642Z,0
2019-05-29T01:19:31.029Z,0
2019-05-29T01:20:11.905Z,0
2019-05-29T01:20:51.809Z,0
2019-05-29T01:21:32.235Z,0
2019-05-29T01:22:12.656Z,0
2019-05-29T01:22:53.045Z,0
2019-05-29T01:23:33.423Z,0
2019-05-29T01:24:14.191Z,0
2019-05-29T01:25:34.577Z,0
2019-05-29T01:26:14.981Z,0
2019-05-29T01:26:55.386Z,0
2019-05-29T01:27:35.782Z,0
2019-05-29T01:35:02.386Z,0
2019-05-29T01:35:42.777Z,0
2019-05-29T01:36:24.158Z,0
2019-05-29T01:37:03.619Z,0
2019-05-29T01:37:43.951Z,0
2019-05-29T01:38:24.452Z,0
2019-05-29T01:39:04.796Z,0
2019-05-29T01:39:45.444Z,0
2019-05-29T01:44:31.181Z,0
2019-05-29T01:45:11.583Z,0
2019-05-29T01:45:51.989Z,0
2019-05-29T01:46:32.637Z,0
2019-05-29T01:47:12.794Z,0
2019-05-29T01:47:53.210Z,0
2019-05-29T01:48:33.599Z,0
2019-05-29T01:49:14.000Z,0
2019-05-29T01:49:54.388Z,0
2019-05-29T01:50:34.827Z,0
2019-05-29T01:51:15.405Z,0
2019-05-29T01:51:56.088Z,0
2019-05-29T02:00:41.161Z,0
2019-05-29T02:01:21.924Z,0
2019-05-29T02:02:01.968Z,0
2019-05-29T02:02:42.377Z,0
2019-05-29T02:03:23.892Z,0
2019-05-29T02:04:03.173Z,0
2019-05-29T02:04:43.698Z,0
2019-05-29T02:05:24.233Z,0
2019-05-29T02:06:04.542Z,0
2019-05-29T02:06:44.948Z,0
2019-05-29T02:07:25.366Z,0
2019-05-29T02:08:05.765Z,0
2019-05-29T02:08:46.226Z,0
2019-05-29T02:16:50.866Z,0
2019-05-29T02:17:31.270Z,0
2019-05-29T02:18:11.695Z,0
2019-05-29T02:18:52.143Z,0
2019-05-29T02:19:32.516Z,0
2019-05-29T02:20:12.948Z,0
2019-05-29T02:20:53.406Z,0
2019-05-29T02:21:33.769Z,0
2019-05-29T02:22:14.194Z,0
2019-05-29T02:22:54.633Z,0
2019-05-29T02:23:35.048Z,0
2019-05-29T02:24:15.454Z,0
2019-05-29T02:24:55.875Z,0
2019-05-29T02:33:41.189Z,0
2019-05-29T02:34:22.499Z,0
2019-05-29T02:35:02.017Z,0
2019-05-29T02:35:42.436Z,0
2019-05-29T02:36:24.523Z,0
2019-05-29T02:37:03.315Z,0
2019-05-29T02:37:43.710Z,0
2019-05-29T02:38:24.959Z,0
2019-05-29T02:39:04.575Z,0
2019-05-29T02:40:27.716Z,0
2019-05-29T02:41:05.819Z,0
2019-05-29T02:49:51.310Z,0
2019-05-29T02:50:31.786Z,0
2019-05-29T02:51:12.402Z,0
2019-05-29T02:51:52.528Z,0
2019-05-29T02:52:32.934Z,0
2019-05-29T02:53:13.350Z,0
2019-05-29T02:53:53.758Z,4
2019-05-29T02:54:34.219Z,4
2019-05-29T02:55:14.621Z,4
2019-05-29T02:55:55.050Z,4
2019-05-29T02:56:35.505Z,0
2019-05-29T03:05:21.856Z,4
2019-05-29T03:06:01.432Z,8
2019-05-29T03:06:41.796Z,8
2019-05-29T03:07:22.398Z,8
2019-05-29T03:08:02.615Z,8
2019-05-29T03:08:42.998Z,12
2019-05-29T03:09:24.706Z,12
2019-05-29T03:10:03.841Z,12
2019-05-29T03:10:44.252Z,12
2019-05-29T03:11:25.160Z,12
2019-05-29T03:12:05.107Z,16
2019-05-29T03:12:45.468Z,16
2019-05-29T03:13:27.405Z,20
2019-05-29T03:21:32.391Z,44
2019-05-29T03:22:11.350Z,48
2019-05-29T03:22:51.757Z,48
2019-05-29T03:23:33.858Z,52
2019-05-29T03:24:12.560Z,52
2019-05-29T03:24:52.949Z,56
2019-05-29T03:25:34.887Z,60
2019-05-29T03:26:13.776Z,64
2019-05-29T03:26:54.191Z,68
2019-05-29T03:27:34.593Z,72
2019-05-29T03:28:15.019Z,72
2019-05-29T03:28:55.455Z,80
2019-05-29T03:37:40.874Z,144
2019-05-29T03:38:21.297Z,148
2019-05-29T03:39:01.693Z,156
2019-05-29T03:39:42.096Z,164
2019-05-29T03:40:22.495Z,168
2019-05-29T03:41:02.923Z,176
2019-05-29T03:41:43.336Z,184
2019-05-29T03:42:23.769Z,192
2019-05-29T03:43:04.191Z,200
2019-05-29T03:43:44.624Z,204
2019-05-29T03:44:26.303Z,216
2019-05-29T03:45:05.454Z,220
2019-05-29T03:45:45.859Z,232
2019-05-29T03:55:11.676Z,400
2019-05-29T03:55:52.106Z,412
2019-05-29T03:56:32.693Z,424
2019-05-29T03:57:12.956Z,436
2019-05-29T03:57:53.358Z,452
2019-05-29T03:58:35.053Z,468
2019-05-29T03:59:14.206Z,484
2019-05-29T03:59:54.622Z,504
2019-05-29T04:00:41.107Z,524
2019-05-29T04:01:15.487Z,548
2019-05-29T04:01:55.942Z,568
2019-05-29T04:13:50.543Z,1168
2019-05-29T04:14:31.603Z,1200
2019-05-29T04:15:11.365Z,1244
2019-05-29T04:15:51.791Z,1288
2019-05-29T04:16:51.996Z,1340
2019-05-29T04:17:12.606Z,1424
2019-05-29T04:17:53.032Z,1672
2019-05-29T04:18:33.963Z,2076
2019-05-29T04:19:13.861Z,2452
2019-05-29T04:19:54.298Z,2792
2019-05-29T04:20:36.019Z,2912
2019-05-29T04:21:15.133Z,2816
2019-05-29T04:21:55.570Z,2844
2019-05-29T05:05:48.031Z,5108
2019-05-29T05:06:29.095Z,5712
2019-05-29T05:07:08.855Z,6100
2019-05-29T05:07:49.270Z,7264
2019-05-29T05:08:29.695Z,8536
2019-05-29T05:09:10.148Z,10644
2019-05-29T05:09:50.540Z,13856
2019-05-29T05:10:31.310Z,19616
2019-05-29T05:11:11.372Z,18784
2019-05-29T05:11:53.466Z,19840
2019-05-29T05:18:37.970Z,23520
2019-05-29T05:20:52.215Z,24544
2019-05-29T05:21:33.922Z,24992
2019-05-29T05:22:13.102Z,25248
2019-05-29T05:22:53.508Z,24800
2019-05-29T05:23:34.012Z,24832
2019-05-29T05:24:14.342Z,25536
2019-05-29T05:24:55.603Z,24768
2019-05-29T05:25:36.421Z,24864
2019-05-29T05:26:16.447Z,25344
2019-05-29T05:26:56.874Z,25440
2019-05-29T05:35:02.019Z,28736
2019-05-29T05:35:42.442Z,30496
2019-05-29T05:36:22.875Z,28800
2019-05-29T05:37:03.320Z,28256
2019-05-29T05:37:43.748Z,27552
2019-05-29T05:38:24.190Z,28544
2019-05-29T05:39:04.611Z,30272
2019-05-29T05:39:45.040Z,29888
2019-05-29T05:40:25.457Z,30912
2019-05-29T05:41:05.893Z,32352
2019-05-29T05:41:46.393Z,31584
2019-05-29T05:42:26.826Z,33024
2019-05-29T05:43:07.249Z,32864
2019-05-29T05:46:33.276Z,32032
2019-05-29T05:47:13.665Z,33152
2019-05-29T05:47:57.644Z,33152
2019-05-29T05:48:35.101Z,34400
2019-05-29T05:49:14.924Z,35872
2019-05-29T05:49:55.366Z,36416
2019-05-29T05:50:35.786Z,37408
2019-05-29T05:51:16.566Z,37664
2019-05-29T05:53:29.382Z,36864
2019-05-29T05:54:09.901Z,37696
2019-05-29T05:54:50.650Z,38176
2019-05-29T05:55:31.455Z,38496
2019-05-29T05:56:11.157Z,38176
2019-05-29T05:56:53.585Z,39392
2019-05-29T05:57:32.047Z,41376
2019-05-29T05:58:12.497Z,39968
2019-05-29T05:58:52.956Z,39072
2019-05-29T05:59:33.575Z,39776
2019-05-29T06:00:13.911Z,40992
2019-05-29T06:02:19.422Z,39104
2019-05-29T06:02:59.804Z,39360
2019-05-29T06:03:40.550Z,39808
2019-05-29T06:04:20.743Z,41600
2019-05-29T06:05:01.290Z,42144
2019-05-29T06:05:42.281Z,43264
2019-05-29T06:06:22.016Z,42880
2019-05-29T06:08:54.903Z,42016
2019-05-29T06:09:38.155Z,42848
2019-05-29T06:10:17.607Z,40384
2019-05-29T06:10:58.098Z,41248
2019-05-29T06:11:38.505Z,43040
2019-05-29T06:12:18.956Z,43552
2019-05-29T06:12:59.397Z,43104
2019-05-29T06:13:40.466Z,44160
2019-05-29T06:18:24.740Z,50752
2019-05-29T06:19:05.161Z,53088
2019-05-29T06:19:45.589Z,53152
2019-05-29T06:20:25.998Z,54144
2019-05-29T06:21:06.444Z,51904
2019-05-29T06:24:53.273Z,43040
2019-05-29T06:25:34.436Z,42912
2019-05-29T06:26:14.467Z,47104
2019-05-29T06:26:54.536Z,48768
2019-05-29T06:27:36.987Z,47072
2019-05-29T06:28:15.584Z,42144
2019-05-29T06:28:57.025Z,38656
2019-05-29T06:29:37.462Z,35872
2019-05-29T06:30:17.882Z,34080
2019-05-29T06:37:43.741Z,33440
2019-05-29T06:38:23.725Z,34624
2019-05-29T06:39:04.110Z,33824
2019-05-29T06:39:44.604Z,30240
2019-05-29T06:40:26.163Z,26496
2019-05-29T06:41:06.535Z,25056
2019-05-29T06:41:46.997Z,24960
2019-05-29T06:42:27.400Z,25440
2019-05-29T06:43:11.708Z,26784
2019-05-29T06:46:34.317Z,23808
2019-05-29T06:47:14.256Z,23456
2019-05-29T06:47:54.536Z,22976
2019-05-29T06:48:44.493Z,22848
2019-05-29T06:49:17.422Z,22976
2019-05-29T06:51:31.376Z,23488
2019-05-29T06:52:12.394Z,23488
2019-05-29T06:52:52.890Z,23680
2019-05-29T06:53:33.445Z,24736
2019-05-29T06:54:13.853Z,25568
2019-05-29T06:54:54.397Z,27488
2019-05-29T06:55:35.767Z,27648
2019-05-29T06:56:15.810Z,27520
2019-05-29T07:02:43.171Z,44864
2019-05-29T07:03:24.312Z,44576
2019-05-29T07:04:11.662Z,44192
2019-05-29T07:04:47.063Z,44640
2019-05-29T07:08:18.886Z,47552
2019-05-29T07:08:52.706Z,44832
2019-05-29T07:09:33.306Z,36640
2019-05-29T07:12:49.738Z,14412
2019-05-29T07:13:30.148Z,14200
2019-05-29T07:14:10.889Z,14208
2019-05-29T07:14:51.440Z,14660
2019-05-29T07:15:31.995Z,15076
2019-05-29T07:16:13.151Z,14760
2019-05-29T07:17:34.670Z,12264
2019-05-29T07:21:42.840Z,9792
2019-05-29T07:22:21.986Z,9544
2019-05-29T07:23:02.667Z,9088
2019-05-29T07:23:44.754Z,8736
2019-05-29T07:24:25.391Z,8276
2019-05-29T07:29:10.202Z,6852
2019-05-29T07:29:50.639Z,5484
2019-05-29T07:30:31.170Z,4660
2019-05-29T07:31:12.639Z,4940
2019-05-29T07:31:53.228Z,5036
2019-05-29T07:32:34.744Z,5692
2019-05-29T07:37:19.682Z,5916
2019-05-29T07:38:04.026Z,5472
2019-05-29T07:40:16.685Z,5200
2019-05-29T07:40:57.110Z,3728
2019-05-29T07:41:37.523Z,3476
2019-05-29T07:42:18.001Z,3320
2019-05-29T07:42:58.624Z,2948
2019-05-29T07:43:39.656Z,2960
2019-05-29T07:44:19.545Z,2948
2019-05-29T07:45:01.494Z,3440
2019-05-29T07:49:06.638Z,3264
2019-05-29T07:49:48.794Z,3176
2019-05-29T07:50:31.718Z,3048
2019-05-29T07:51:57.739Z,3008
2019-05-29T07:52:38.584Z,3008
2019-05-29T07:53:19.525Z,3928
2019-05-29T07:54:00.545Z,3268
2019-05-29T07:54:41.730Z,3300
2019-05-29T07:55:23.607Z,3420
2019-05-29T08:02:06.693Z,3808
2019-05-29T08:02:47.457Z,4024
2019-05-29T08:03:27.598Z,4528
2019-05-29T08:04:11.883Z,4316
2019-05-29T08:08:16.509Z,4724
2019-05-29T08:08:56.954Z,4132
2019-05-29T08:09:37.372Z,4536
2019-05-29T08:10:17.801Z,4836
2019-05-29T08:10:59.209Z,4924
2019-05-29T08:11:39.520Z,4140
2019-05-29T08:12:20.393Z,4016
2019-05-29T08:13:01.210Z,4156
2019-05-29T08:13:41.472Z,4472
2019-05-29T08:17:48.157Z,3560
2019-05-29T08:18:27.837Z,3448
2019-05-29T08:19:08.311Z,3008
2019-05-29T08:20:02.531Z,3376
2019-05-29T08:22:02.523Z,2520
2019-05-29T08:22:44.278Z,3052
2019-05-29T08:23:24.362Z,2900
2019-05-29T08:24:04.135Z,2516
2019-05-29T08:24:46.207Z,2596
2019-05-29T08:25:25.323Z,2548
2019-05-29T08:26:06.754Z,2532
2019-05-29T08:32:12.000Z,3716
2019-05-29T08:32:53.426Z,3692
2019-05-29T08:33:34.062Z,3664
2019-05-29T08:34:14.582Z,3552
2019-05-29T08:34:54.992Z,3040
2019-05-29T08:35:35.465Z,3088
2019-05-29T08:36:16.398Z,3276
2019-05-29T08:37:06.172Z,3140
2019-05-29T08:37:37.200Z,3076
2019-05-29T08:44:21.957Z,2612
2019-05-29T08:45:02.666Z,2660
2019-05-29T08:45:43.447Z,2688
2019-05-29T08:46:24.349Z,2036
2019-05-29T08:47:10.312Z,2044
2019-05-29T08:47:45.878Z,2048
2019-05-29T08:48:25.799Z,2204
2019-05-29T08:49:06.241Z,1964
2019-05-29T08:49:49.475Z,1916
2019-05-29T08:50:27.057Z,1888
2019-05-29T08:55:13.843Z,2404
2019-05-29T08:55:53.721Z,2392
2019-05-29T08:56:34.186Z,2380
2019-05-29T08:57:14.572Z,2368
2019-05-29T08:57:55.089Z,2356
2019-05-29T08:58:37.273Z,2344
2019-05-29T08:59:17.910Z,2328
2019-05-29T09:05:22.212Z,2192
2019-05-29T09:06:08.749Z,2188
2019-05-29T09:08:15.779Z,2120
2019-05-29T09:08:56.220Z,2108
2019-05-29T09:09:36.936Z,2088
2019-05-29T09:10:17.446Z,2080
2019-05-29T09:10:58.403Z,2072
2019-05-29T09:11:38.873Z,2068
2019-05-29T09:12:19.378Z,2044
2019-05-29T09:13:04.642Z,2044
2019-05-29T09:15:20.758Z,2008
2019-05-29T09:15:55.224Z,2008
2019-05-29T09:16:35.671Z,1996
2019-05-29T09:17:20.049Z,1996
2019-05-29T09:25:42.487Z,2024
2019-05-29T09:26:26.551Z,2024
2019-05-29T09:27:07.240Z,2016
2019-05-29T09:27:53.505Z,2008
2019-05-29T09:28:35.033Z,1996
2019-05-29T09:29:18.173Z,1896
2019-05-29T09:29:55.368Z,1900
2019-05-29T09:30:35.961Z,1896
2019-05-29T09:31:18.540Z,1884
2019-05-29T09:33:25.251Z,1868
2019-05-29T09:34:06.435Z,1868
2019-05-29T09:34:47.659Z,1856
2019-05-29T09:35:26.568Z,1856
2019-05-29T09:36:07.075Z,1860
2019-05-29T09:39:32.942Z,1864
2019-05-29T09:40:15.362Z,1860
2019-05-29T09:40:54.020Z,1864
2019-05-29T09:41:35.672Z,1856
2019-05-29T09:42:18.632Z,1840
2019-05-29T09:46:23.658Z,1788
2019-05-29T09:47:03.497Z,1788
2019-05-29T09:47:44.254Z,1796
2019-05-29T09:48:27.276Z,1804
2019-05-29T09:49:06.623Z,1812
2019-05-29T09:49:48.674Z,1808
2019-05-29T09:53:12.713Z,1788
2019-05-29T09:53:54.242Z,1748
2019-05-29T09:54:34.101Z,1776
2019-05-29T09:55:15.477Z,1436
2019-05-29T09:55:57.645Z,1756
2019-05-29T09:56:36.969Z,1808
2019-05-29T09:57:17.098Z,1804
2019-05-29T09:57:58.647Z,1792
2019-05-29T09:59:23.347Z,1804
2019-05-29T10:00:06.609Z,1796
2019-05-29T10:00:47.416Z,1792
2019-05-29T10:03:34.819Z,1752
2019-05-29T10:04:16.664Z,1764
2019-05-29T10:04:57.999Z,1744
2019-05-29T10:07:04.780Z,1300
2019-05-29T10:07:43.079Z,1332
2019-05-29T10:08:23.797Z,1704
2019-05-29T10:09:07.652Z,1680
2019-05-29T10:11:12.465Z,1772
2019-05-29T10:11:58.552Z,1604
2019-05-29T10:12:35.269Z,1780
2019-05-29T10:13:15.677Z,1780
2019-05-29T10:13:56.904Z,1764
2019-05-29T10:14:36.624Z,1744
2019-05-29T10:15:17.138Z,1480
2019-05-29T10:15:59.054Z,1652
2019-05-29T10:18:43.191Z,1740
2019-05-29T10:19:24.210Z,1736
2019-05-29T10:20:05.070Z,1740
2019-05-29T10:21:40.414Z,1756
2019-05-29T10:22:14.843Z,1816
2019-05-29T10:22:55.611Z,1896
2019-05-29T10:23:35.819Z,1916
2019-05-29T10:24:16.212Z,1880
2019-05-29T10:24:57.933Z,1840
2019-05-29T10:25:38.818Z,1820
2019-05-29T10:27:03.413Z,1848
2019-05-29T10:27:47.258Z,1868
2019-05-29T10:28:49.021Z,1864
2019-05-29T10:29:13.167Z,1844
2019-05-29T11:10:56.302Z,1612
2019-05-29T11:11:36.535Z,1640
2019-05-29T11:12:16.626Z,1660
2019-05-29T11:12:57.092Z,1656
2019-05-29T11:13:37.580Z,1644
2019-05-29T11:14:18.155Z,1624
2019-05-29T11:14:58.814Z,1592
2019-05-29T11:15:39.631Z,1576
2019-05-29T11:24:36.782Z,1740
2019-05-29T11:25:23.444Z,1748
2019-05-29T11:25:58.225Z,1752
2019-05-29T11:26:40.630Z,1732
2019-05-29T11:28:07.732Z,1676
2019-05-29T11:30:13.869Z,1672
2019-05-29T11:30:54.140Z,1668
2019-05-29T11:31:33.991Z,1664
2019-05-29T11:32:14.600Z,1648
2019-05-29T11:32:57.195Z,1636
2019-05-29T11:33:37.276Z,1640
2019-05-29T11:37:41.592Z,1748
2019-05-29T11:38:23.002Z,1768
2019-05-29T11:39:06.179Z,1788
2019-05-29T11:39:44.167Z,1788
2019-05-29T11:40:24.698Z,1772
2019-05-29T11:41:24.957Z,1744
2019-05-29T11:41:45.612Z,1712
2019-05-29T11:42:28.153Z,1688
2019-05-29T11:44:31.772Z,1664
2019-05-29T11:45:12.716Z,1696
2019-05-29T11:45:57.344Z,1756
2019-05-29T11:48:02.037Z,1988
2019-05-29T11:48:42.756Z,2016
2019-05-29T11:49:22.626Z,2000
2019-05-29T11:50:17.915Z,2000
2019-05-29T11:50:47.281Z,1996
2019-05-29T11:52:23.166Z,1972
2019-05-29T11:52:52.409Z,1948
2019-05-29T11:53:33.118Z,1908
2019-05-29T11:54:14.601Z,1832
2019-05-29T11:54:57.929Z,1748
2019-05-29T11:55:35.797Z,1692
2019-05-29T11:56:17.117Z,1668
2019-05-29T11:59:41.861Z,1580
2019-05-29T12:00:21.781Z,1580
2019-05-29T12:01:02.862Z,1580
2019-05-29T12:01:49.993Z,1580
2019-05-29T12:02:24.745Z,1572
2019-05-29T12:03:05.234Z,1580
2019-05-29T12:04:07.380Z,1576
2019-05-29T12:04:27.247Z,1576
2019-05-29T12:05:52.113Z,1576
2019-05-29T12:06:32.214Z,1564
2019-05-29T12:07:12.591Z,1552
2019-05-29T12:07:53.422Z,1544
2019-05-29T12:08:36.273Z,1552
2019-05-29T12:15:15.466Z,1532
2019-05-29T12:15:57.638Z,1528
2019-05-29T12:16:37.396Z,1528
2019-05-29T12:17:17.848Z,1520
2019-05-29T12:20:02.541Z,1492
2019-05-29T12:20:41.350Z,1492
2019-05-29T12:21:21.839Z,1492
2019-05-29T12:22:03.009Z,1492
2019-05-29T12:23:06.872Z,1488
2019-05-29T12:23:26.630Z,1492
2019-05-29T12:24:03.941Z,1500
2019-05-29T12:24:45.926Z,1496
2019-05-29T12:30:53.307Z,1500
2019-05-29T12:31:32.094Z,1496
2019-05-29T12:32:12.849Z,1496
2019-05-29T12:32:52.928Z,1488
2019-05-29T12:33:33.334Z,1480
2019-05-29T12:34:19.016Z,1480
2019-05-29T12:38:42.878Z,1480
2019-05-29T12:40:55.413Z,1476
2019-05-29T12:41:36.029Z,1476
2019-05-29T12:42:16.298Z,1472
2019-05-29T12:42:57.486Z,1468
2019-05-29T12:43:37.831Z,1460
2019-05-29T12:44:17.664Z,1452
2019-05-29T12:44:59.487Z,1444
2019-05-29T12:45:38.699Z,1436
2019-05-29T12:46:19.343Z,1436
2019-05-29T12:50:24.480Z,1412
2019-05-29T12:51:05.800Z,1408
2019-05-29T12:51:46.267Z,1408
2019-05-29T12:52:26.719Z,1408
2019-05-29T12:53:07.173Z,1408
2019-05-29T12:53:47.706Z,1408
2019-05-29T12:54:28.144Z,1408
2019-05-29T12:55:08.559Z,1400
2019-05-29T12:55:49.855Z,1392
2019-05-29T13:00:34.175Z,1428
2019-05-29T13:01:14.818Z,1436
2019-05-29T13:01:56.183Z,1448
2019-05-29T13:02:35.929Z,1452
2019-05-29T13:03:16.453Z,1448
2019-05-29T13:03:58.516Z,1448
2019-05-29T13:05:05.779Z,1452
2019-05-29T13:05:20.628Z,1448
2019-05-29T13:06:00.370Z,1452
2019-05-29T13:11:24.299Z,1400
2019-05-29T13:12:04.925Z,1396
2019-05-29T13:12:45.434Z,1392
2019-05-29T13:13:26.194Z,1396
2019-05-29T13:14:07.832Z,1392
2019-05-29T13:14:48.371Z,1392
2019-05-29T13:15:32.874Z,1384
2019-05-29T13:16:14.924Z,1380
2019-05-29T13:16:58.690Z,1376
2019-05-29T13:17:38.496Z,1368
2019-05-29T13:18:23.191Z,1368
2019-05-29T13:20:51.338Z,1356
2019-05-29T13:21:32.158Z,1360
2019-05-29T13:22:12.592Z,1360
2019-05-29T13:22:53.120Z,1356
2019-05-29T13:26:57.806Z,1352
2019-05-29T13:27:38.881Z,1348
2019-05-29T13:28:26.207Z,1344
2019-05-29T13:29:07.837Z,1344
2019-05-29T13:29:49.732Z,1344
2019-05-29T13:30:30.203Z,1344
2019-05-29T13:31:10.636Z,1348
2019-05-29T13:31:55.454Z,1344
2019-05-29T13:32:32.586Z,1344
2019-05-29T13:39:18.657Z,1340
2019-05-29T13:39:58.493Z,1336
2019-05-29T13:40:38.932Z,1336
2019-05-29T13:41:19.476Z,1332
2019-05-29T13:42:05.541Z,1336
2019-05-29T13:42:40.646Z,1336
2019-05-29T13:43:21.024Z,1340
2019-05-29T13:44:02.709Z,1336
2019-05-29T13:44:41.988Z,1336
2019-05-29T13:45:22.414Z,1336
2019-05-29T13:50:06.216Z,1328
2019-05-29T13:50:42.100Z,1328
2019-05-29T13:51:22.526Z,1328
2019-05-29T13:52:08.097Z,1328
2019-05-29T13:52:45.104Z,1328
2019-05-29T13:53:24.973Z,1324
2019-05-29T13:54:11.549Z,1324
2019-05-29T13:54:45.784Z,1320
2019-05-29T13:55:26.242Z,1316
2019-05-29T13:59:33.320Z,1312
2019-05-29T14:00:33.577Z,1312
2019-05-29T14:02:28.173Z,1308
2019-05-29T14:03:09.163Z,1308
2019-05-29T14:03:50.560Z,1304
2019-05-29T14:04:29.716Z,1296
2019-05-29T14:05:10.049Z,1292
2019-05-29T14:05:50.744Z,1292
2019-05-29T14:06:31.164Z,1288
2019-05-29T14:13:56.445Z,1280
2019-05-29T14:14:36.707Z,1276
2019-05-29T14:15:17.162Z,1272
2019-05-29T14:15:57.571Z,1268
2019-05-29T14:16:37.974Z,1268
2019-05-29T14:17:18.570Z,1264
2019-05-29T14:17:59.286Z,1256
2019-05-29T14:18:39.445Z,1256
2019-05-29T14:19:20.875Z,1252
2019-05-29T14:20:00.994Z,1252
2019-05-29T14:20:42.371Z,1252
2019-05-29T14:28:06.852Z,1240
2019-05-29T14:28:46.832Z,1240
2019-05-29T14:29:27.237Z,1236
2019-05-29T14:30:08.365Z,1240
2019-05-29T14:30:48.023Z,1236
2019-05-29T14:31:28.438Z,1236
2019-05-29T14:32:09.241Z,1236
2019-05-29T14:32:49.254Z,1232
2019-05-29T14:33:29.698Z,1232
2019-05-29T14:34:10.132Z,1232
2019-05-29T14:34:50.958Z,1228
2019-05-29T14:35:31.419Z,1228
2019-05-29T14:42:56.228Z,1208
2019-05-29T14:43:36.850Z,1208
2019-05-29T14:44:17.308Z,1204
2019-05-29T14:44:57.452Z,1200
2019-05-29T14:45:43.842Z,1196
2019-05-29T14:49:15.645Z,1188
2019-05-29T14:49:56.287Z,1188
2019-05-29T14:50:36.921Z,1184
2019-05-29T14:51:17.417Z,1188
2019-05-29T14:51:58.752Z,1184
2019-05-29T14:57:12.220Z,1176
2019-05-29T14:57:44.499Z,1176
2019-05-29T14:58:24.882Z,1176
2019-05-29T14:59:05.928Z,1172
2019-05-29T14:59:45.735Z,1172
2019-05-29T15:00:26.157Z,1172
2019-05-29T15:01:07.151Z,1176
2019-05-29T15:01:50.882Z,1176
2019-05-29T15:02:27.383Z,1176
2019-05-29T15:03:07.810Z,1176
2019-05-29T15:03:49.266Z,1176
2019-05-29T15:07:13.986Z,1160
2019-05-29T15:07:53.993Z,1160
2019-05-29T15:08:37.239Z,1156
2019-05-29T15:09:18.708Z,1156
2019-05-29T15:17:23.238Z,1140
2019-05-29T15:18:04.873Z,1040
2019-05-29T15:18:46.042Z,1144
2019-05-29T15:19:26.465Z,968
2019-05-29T15:20:07.401Z,1120
2019-05-29T15:20:47.280Z,1116
2019-05-29T15:21:27.697Z,1124
2019-05-29T15:22:09.192Z,1128
2019-05-29T15:30:18.017Z,1096
2019-05-29T15:30:53.760Z,1100
2019-05-29T15:31:34.150Z,1096
2019-05-29T15:32:14.693Z,1100
2019-05-29T15:32:55.227Z,996
2019-05-29T15:33:35.435Z,1100
2019-05-29T15:36:52.997Z,1104
2019-05-29T15:37:33.446Z,1104
2019-05-29T15:38:17.054Z,1104
2019-05-29T15:38:56.186Z,1108
2019-05-29T15:39:36.588Z,1108
2019-05-29T15:40:17.289Z,1044
2019-05-29T15:40:57.431Z,1108
2019-05-29T15:41:37.843Z,1108
2019-05-29T15:44:56.640Z,1092
2019-05-29T15:45:37.369Z,1092
2019-05-29T15:46:18.908Z,1092
2019-05-29T15:46:58.823Z,1092
2019-05-29T15:47:39.715Z,1076
2019-05-29T15:48:19.921Z,1064
2019-05-29T15:49:01.172Z,1068
2019-05-29T15:56:28.070Z,848
2019-05-29T15:57:07.070Z,840
2019-05-29T15:57:47.662Z,840
2019-05-29T15:58:30.015Z,840
2019-05-29T15:59:12.530Z,844
2019-05-29T16:01:58.162Z,1012
2019-05-29T16:02:40.434Z,1036
2019-05-29T16:03:21.048Z,1040
2019-05-29T16:08:47.618Z,1020
2019-05-29T16:09:28.057Z,1016
2019-05-29T16:10:08.453Z,1012
2019-05-29T16:10:48.889Z,1008
2019-05-29T16:11:30.390Z,980
2019-05-29T16:12:12.636Z,912
2019-05-29T16:12:51.440Z,904
2019-05-29T16:18:33.074Z,964
2019-05-29T16:19:14.088Z,976
2019-05-29T16:19:54.079Z,980
2019-05-29T16:20:34.512Z,984
2019-05-29T16:21:16.883Z,984
2019-05-29T16:25:37.688Z,968
2019-05-29T16:26:02.444Z,964
2019-05-29T16:26:42.874Z,960
2019-05-29T16:27:27.557Z,956
2019-05-29T16:28:03.812Z,956
2019-05-29T16:28:44.223Z,952
2019-05-29T17:08:51.580Z,816
2019-05-29T17:09:32.029Z,816
2019-05-29T17:10:12.425Z,812
2019-05-29T17:10:52.824Z,808
2019-05-29T17:11:33.234Z,808
2019-05-29T17:12:14.275Z,804
2019-05-29T17:12:54.014Z,800
2019-05-29T17:13:34.476Z,796
2019-05-29T17:14:14.847Z,792
2019-05-29T17:14:55.241Z,792
2019-05-29T17:15:36.252Z,788
2019-05-29T17:16:16.626Z,780
2019-05-29T17:24:22.884Z,744
2019-05-29T17:25:01.906Z,744
2019-05-29T17:25:42.463Z,732
2019-05-29T17:26:22.810Z,736
2019-05-29T17:27:03.138Z,732
2019-05-29T17:27:43.525Z,732
2019-05-29T17:28:26.569Z,728
2019-05-29T17:29:04.332Z,724
2019-05-29T17:29:44.759Z,716
2019-05-29T17:30:25.185Z,712
2019-05-29T17:31:05.658Z,708
2019-05-29T17:31:45.997Z,692
2019-05-29T17:32:26.412Z,684
2019-05-29T17:41:11.506Z,564
2019-05-29T17:41:51.982Z,556
2019-05-29T17:42:32.372Z,544
2019-05-29T17:43:13.088Z,544
2019-05-29T17:43:53.556Z,540
2019-05-29T17:44:34.345Z,540
2019-05-29T17:45:19.497Z,536
2019-05-29T17:45:56.735Z,536
2019-05-29T17:50:41.455Z,528
2019-05-29T17:51:21.945Z,532
2019-05-29T17:52:02.225Z,536
2019-05-29T17:52:42.605Z,540
2019-05-29T17:53:24.199Z,544
2019-05-29T17:54:03.412Z,560
2019-05-29T17:54:43.805Z,564
2019-05-29T17:55:24.891Z,568
2019-05-29T17:56:04.604Z,576
2019-05-29T17:56:45.375Z,580
2019-05-29T17:57:25.996Z,584
2019-05-29T17:58:06.092Z,572
2019-05-29T17:58:46.488Z,552
2019-05-29T18:07:31.709Z,484
2019-05-29T18:08:12.070Z,492
2019-05-29T18:08:52.477Z,496
2019-05-29T18:09:32.974Z,484
2019-05-29T18:10:13.331Z,476
2019-05-29T18:10:53.746Z,468
2019-05-29T18:11:34.102Z,460
2019-05-29T18:12:14.494Z,456
2019-05-29T18:12:54.886Z,452
2019-05-29T18:13:35.306Z,448
2019-05-29T18:14:15.701Z,448
2019-05-29T18:14:56.103Z,448
2019-05-29T18:15:36.490Z,452
2019-05-29T18:23:01.622Z,416
2019-05-29T18:23:42.012Z,416
2019-05-29T18:24:23.523Z,412
2019-05-29T18:25:03.059Z,408
2019-05-29T18:25:43.202Z,408
2019-05-29T18:26:24.202Z,412
2019-05-29T18:27:03.963Z,416
2019-05-29T18:27:44.357Z,412
2019-05-29T18:28:26.058Z,408
2019-05-29T18:29:07.611Z,400
2019-05-29T18:36:31.821Z,328
2019-05-29T18:37:12.200Z,320
2019-05-29T18:37:52.467Z,316
2019-05-29T18:38:32.867Z,312
2019-05-29T18:39:13.298Z,308
2019-05-29T18:39:53.658Z,304
2019-05-29T18:40:34.330Z,296
2019-05-29T18:41:14.735Z,300
2019-05-29T18:41:55.181Z,296
2019-05-29T18:42:35.569Z,292